createdAt,value
2019-04-07T00:03:10.866Z,80.50
2019-04-07T00:07:20.234Z,80.90
2019-04-07T00:11:29.759Z,81.20
2019-04-07T00:15:38.963Z,81.60
2019-04-07T00:19:48.079Z,81.80
2019-04-07T00:23:57.913Z,82.00
2019-04-07T00:28:06.830Z,82.20
2019-04-07T00:32:15.785Z,82.80
2019-04-07T00:36:24.646Z,83.10
2019-04-07T00:40:33.833Z,83.40
2019-04-07T00:44:43.278Z,83.40
2019-04-07T00:48:52.085Z,83.50
2019-04-07T00:53:01.285Z,83.60
2019-04-07T00:57:10.802Z,83.80
2019-04-07T01:01:20.715Z,83.80
2019-04-07T01:05:36.737Z,83.90
2019-04-07T01:09:40.207Z,84.10
2019-04-07T01:13:49.090Z,83.90
2019-04-07T01:17:57.939Z,84.40
2019-04-07T01:22:06.839Z,84.80
2019-04-07T01:26:16.337Z,85.10
2019-04-07T01:30:25.386Z,85.40
2019-04-07T01:34:34.969Z,85.60
2019-04-07T01:38:44.494Z,85.80
2019-04-07T01:43:01.484Z,86.60
2019-04-07T01:47:35.446Z,86.10
2019-04-07T01:52:07.196Z,86.20
2019-04-07T01:56:24.870Z,86.50
2019-04-07T02:00:58.788Z,87.40
2019-04-07T02:05:27.143Z,86.90
2019-04-07T02:09:54.571Z,87.10
2019-04-07T02:14:35.520Z,87.00
2019-04-07T02:19:10.874Z,87.10
2019-04-07T02:23:27.365Z,87.30
2019-04-07T02:27:58.589Z,87.60
2019-04-07T02:32:34.449Z,87.70
2019-04-07T02:36:58.119Z,87.80
2019-04-07T02:41:33.201Z,88.20
2019-04-07T02:46:04.239Z,88.20
2019-04-07T02:50:35.790Z,88.30
2019-04-07T02:55:00.055Z,89.40
2019-04-07T02:59:42.773Z,88.90
2019-04-07T03:04:08.204Z,88.70
2019-04-07T03:08:38.282Z,88.70
2019-04-07T03:13:09.941Z,88.80
2019-04-07T03:17:50.311Z,88.80
2019-04-07T03:22:11.124Z,88.80
2019-04-07T03:26:51.302Z,88.70
2019-04-07T03:31:12.476Z,89.20
2019-04-07T03:35:30.149Z,89.30
2019-04-07T03:40:00.792Z,89.40
2019-04-07T03:44:27.672Z,89.40
2019-04-07T03:48:44.326Z,89.30
2019-04-07T03:53:12.531Z,89.30
2019-04-07T03:57:43.522Z,89.40
2019-04-07T04:02:11.010Z,89.40
2019-04-07T04:06:38.890Z,89.00
2019-04-07T04:10:54.571Z,89.10
2019-04-07T04:15:08.784Z,89.50
2019-04-07T04:19:18.672Z,89.60
2019-04-07T04:23:28.478Z,89.40
2019-04-07T04:27:38.607Z,89.60
2019-04-07T04:31:47.605Z,89.50
2019-04-07T04:35:56.685Z,89.70
2019-04-07T04:40:07.299Z,89.60
2019-04-07T04:44:16.569Z,89.60
2019-04-07T04:48:25.919Z,89.50
2019-04-07T04:52:34.913Z,89.90
2019-04-07T04:56:44.793Z,90.00
2019-04-07T05:00:54.331Z,90.00
2019-04-07T05:05:04.004Z,90.00
2019-04-07T05:09:13.354Z,90.00
2019-04-07T05:13:22.489Z,90.00
2019-04-07T05:17:31.380Z,90.00
2019-04-07T05:21:40.502Z,89.70
2019-04-07T05:25:49.427Z,89.50
2019-04-07T05:29:58.379Z,89.00
2019-04-07T05:34:07.405Z,89.20
2019-04-07T05:38:16.555Z,88.60
2019-04-07T05:42:26.649Z,88.10
2019-04-07T05:46:38.538Z,87.80
2019-04-07T05:50:46.197Z,87.30
2019-04-07T05:54:56.176Z,86.90
2019-04-07T05:59:05.145Z,86.50
2019-04-07T06:03:14.299Z,86.00
2019-04-07T06:07:25.675Z,85.60
2019-04-07T06:11:36.128Z,84.90
2019-04-07T06:15:44.794Z,84.30
2019-04-07T06:19:53.647Z,83.70
2019-04-07T06:24:02.757Z,83.00
2019-04-07T06:28:13.937Z,82.60
2019-04-07T06:32:24.423Z,82.20
2019-04-07T06:36:34.005Z,81.80
2019-04-07T06:40:43.691Z,81.60
2019-04-07T06:44:52.840Z,81.30
2019-04-07T06:49:11.695Z,81.10
2019-04-07T06:53:52.418Z,80.50
2019-04-07T06:58:10.017Z,79.70
2019-04-07T07:02:39.063Z,78.80
2019-04-07T07:06:57.888Z,78.00
2019-04-07T07:11:28.875Z,77.50
2019-04-07T07:15:57.349Z,77.40
2019-04-07T07:20:19.738Z,76.40
2019-04-07T07:24:29.558Z,75.70
2019-04-07T07:28:42.509Z,74.80
2019-04-07T07:32:49.762Z,73.00
2019-04-07T07:36:59.177Z,72.30
2019-04-07T07:41:08.995Z,71.40
2019-04-07T07:45:18.724Z,70.80
2019-04-07T07:49:28.862Z,70.30
2019-04-07T07:53:38.331Z,69.60
2019-04-07T07:57:48.107Z,68.80
2019-04-07T08:01:57.819Z,68.40
2019-04-07T08:06:08.332Z,67.30
2019-04-07T08:10:18.612Z,66.40
2019-04-07T08:14:28.294Z,65.70
2019-04-07T08:18:40.641Z,64.80
2019-04-07T08:22:48.233Z,63.90
2019-04-07T08:26:58.861Z,63.40
2019-04-07T08:31:08.360Z,63.30
2019-04-07T08:35:17.616Z,62.20
2019-04-07T08:39:32.371Z,61.30
2019-04-07T08:43:38.262Z,59.70
2019-04-07T08:47:49.014Z,58.50
2019-04-07T08:51:58.275Z,57.70
2019-04-07T08:56:08.888Z,57.00
2019-04-07T09:00:23.274Z,56.40
2019-04-07T09:04:32.086Z,55.90
2019-04-07T09:08:41.042Z,54.40
2019-04-07T09:12:51.151Z,52.60
2019-04-07T09:17:32.923Z,53.30
2019-04-07T09:21:51.655Z,52.80
2019-04-07T09:26:10.101Z,51.20
2019-04-07T09:30:36.809Z,50.30
2019-04-07T09:34:56.250Z,49.10
2019-04-07T09:39:44.795Z,48.60
2019-04-07T09:44:03.122Z,48.20
2019-04-07T09:48:30.625Z,47.20
2019-04-07T09:52:56.180Z,47.40
2019-04-07T09:57:23.613Z,47.20
2019-04-07T10:01:37.434Z,46.50
2019-04-07T10:06:04.145Z,45.70
2019-04-07T10:10:41.502Z,45.70
2019-04-07T10:15:08.151Z,44.10
2019-04-07T10:19:39.202Z,44.40
2019-04-07T10:24:09.944Z,44.00
2019-04-07T10:28:33.275Z,44.30
2019-04-07T10:32:55.283Z,43.60
2019-04-07T10:37:23.243Z,44.50
2019-04-07T10:41:59.247Z,42.20
2019-04-07T10:46:22.651Z,42.80
2019-04-07T10:50:51.844Z,42.90
2019-04-07T10:55:35.188Z,43.10
2019-04-07T11:00:05.929Z,42.00
2019-04-07T11:04:38.779Z,42.90
2019-04-07T11:09:00.388Z,43.70
2019-04-07T11:13:27.598Z,43.10
2019-04-07T11:17:53.962Z,41.90
2019-04-07T11:22:21.965Z,41.90
2019-04-07T11:26:51.763Z,41.50
2019-04-07T11:31:24.413Z,40.60
2019-04-07T11:35:41.467Z,41.00
2019-04-07T11:40:02.275Z,41.20
2019-04-07T11:44:22.954Z,39.40
2019-04-07T11:48:45.094Z,39.60
2019-04-07T11:53:01.829Z,39.40
2019-04-07T11:57:17.458Z,40.70
2019-04-07T12:01:49.859Z,38.00
2019-04-07T12:06:25.394Z,38.50
2019-04-07T12:10:58.566Z,37.60
2019-04-07T12:15:30.977Z,37.20
2019-04-07T12:20:11.349Z,35.80
2019-04-07T12:24:39.200Z,36.10
2019-04-07T12:29:06.918Z,35.20
2019-04-07T12:33:39.330Z,35.30
2019-04-07T12:38:12.190Z,35.30
2019-04-07T12:42:35.743Z,35.70
2019-04-07T12:46:55.641Z,36.30
2019-04-07T12:51:24.118Z,34.70
2019-04-07T12:55:53.262Z,35.30
2019-04-07T13:00:15.727Z,34.80
2019-04-07T13:04:31.876Z,34.60
2019-04-07T13:09:00.765Z,34.70
2019-04-07T13:13:36.351Z,33.60
2019-04-07T13:18:09.640Z,33.70
2019-04-07T13:22:36.471Z,33.40
2019-04-07T13:26:50.034Z,32.80
2019-04-07T13:31:06.946Z,31.90
2019-04-07T13:35:38.194Z,32.80
2019-04-07T13:40:10.573Z,33.30
2019-04-07T13:44:40.702Z,32.90
2019-04-07T13:49:09.662Z,33.10
2019-04-07T13:53:50.088Z,31.60
2019-04-07T13:58:14.990Z,32.30
2019-04-07T14:02:42.145Z,32.30
2019-04-07T14:07:16.908Z,33.00
2019-04-07T14:12:05.059Z,33.30
2019-04-07T14:16:25.770Z,32.90
2019-04-07T14:20:51.123Z,32.50
2019-04-07T14:25:13.464Z,32.60
2019-04-07T14:29:37.453Z,32.40
2019-04-07T14:33:57.753Z,32.90
2019-04-07T14:38:25.540Z,33.00
2019-04-07T14:43:05.743Z,32.00
2019-04-07T14:47:37.076Z,32.20
2019-04-07T14:52:05.734Z,33.10
2019-04-07T14:56:35.665Z,34.00
2019-04-07T15:01:14.675Z,34.50
2019-04-07T15:05:35.798Z,35.00
2019-04-07T15:09:52.485Z,33.40
2019-04-07T15:14:02.542Z,32.70
2019-04-07T15:18:12.712Z,33.60
2019-04-07T15:22:25.135Z,33.20
2019-04-07T15:26:32.569Z,33.40
2019-04-07T15:30:46.103Z,34.00
2019-04-07T15:34:53.038Z,34.70
2019-04-07T15:39:03.226Z,34.50
2019-04-07T15:43:12.615Z,35.90
2019-04-07T15:47:22.216Z,36.00
2019-04-07T15:51:34.171Z,36.20
2019-04-07T15:55:47.717Z,36.80
2019-04-07T15:59:54.116Z,36.40
2019-04-07T16:04:05.527Z,35.10
2019-04-07T16:08:14.338Z,35.20
2019-04-07T16:12:24.063Z,34.70
2019-04-07T16:16:32.994Z,34.50
2019-04-07T16:20:43.154Z,34.50
2019-04-07T16:24:55.037Z,35.10
2019-04-07T16:29:03.358Z,34.90
2019-04-07T16:33:12.859Z,34.00
2019-04-07T16:37:21.756Z,34.50
2019-04-07T16:41:31.569Z,35.50
2019-04-07T16:45:44.110Z,36.30
2019-04-07T16:49:52.347Z,36.50
2019-04-07T16:54:02.684Z,36.60
2019-04-07T16:58:11.834Z,36.80
2019-04-07T17:02:20.736Z,37.30
2019-04-07T17:06:34.710Z,38.20
2019-04-07T17:10:41.183Z,38.80
2019-04-07T17:14:51.127Z,39.60
2019-04-07T17:19:02.027Z,40.30
2019-04-07T17:23:11.238Z,40.80
2019-04-07T17:27:20.499Z,41.20
2019-04-07T17:31:32.066Z,41.90
2019-04-07T17:35:43.247Z,42.40
2019-04-07T17:39:57.841Z,42.90
2019-04-07T17:44:26.591Z,43.70
2019-04-07T17:48:57.216Z,44.20
2019-04-07T17:53:23.618Z,44.30
2019-04-07T17:57:38.319Z,45.20
2019-04-07T18:02:05.385Z,45.60
2019-04-07T18:06:36.631Z,45.90
2019-04-07T18:11:08.692Z,47.80
2019-04-07T18:15:38.338Z,48.70
2019-04-07T18:20:09.685Z,49.40
2019-04-07T18:24:34.111Z,50.10
2019-04-07T18:28:52.689Z,51.00
2019-04-07T18:33:22.567Z,51.60
2019-04-07T18:37:52.769Z,52.00
2019-04-07T18:42:32.960Z,53.30
2019-04-07T18:47:15.141Z,53.20
2019-04-07T18:51:31.997Z,53.70
2019-04-07T18:55:54.621Z,54.80
2019-04-07T19:00:21.033Z,54.70
2019-04-07T19:04:50.094Z,55.10
2019-04-07T19:09:10.096Z,55.60
2019-04-07T19:13:37.741Z,55.80
2019-04-07T19:18:05.813Z,55.90
2019-04-07T19:22:32.902Z,55.80
2019-04-07T19:27:17.343Z,56.20
2019-04-07T19:31:36.320Z,56.30
2019-04-07T19:36:02.922Z,56.40
2019-04-07T19:40:27.723Z,56.40
2019-04-07T19:45:03.988Z,56.10
2019-04-07T19:49:31.142Z,55.90
2019-04-07T19:54:00.531Z,56.00
2019-04-07T19:58:17.763Z,56.50
2019-04-07T20:02:37.370Z,56.80
2019-04-07T20:07:04.803Z,57.10
2019-04-07T20:11:38.374Z,57.10
2019-04-07T20:16:00.355Z,57.70
2019-04-07T20:20:41.899Z,58.30
2019-04-07T20:25:12.366Z,58.50
2019-04-07T20:29:41.346Z,58.90
2019-04-07T20:34:05.585Z,59.50
2019-04-07T20:38:30.522Z,59.90
2019-04-07T20:42:58.335Z,60.40
2019-04-07T20:47:29.880Z,60.70
2019-04-07T20:52:11.398Z,61.30
2019-04-07T20:56:35.363Z,61.60
2019-04-07T21:01:00.688Z,62.00
2019-04-07T21:05:24.643Z,62.40
2019-04-07T21:09:52.082Z,63.20
2019-04-07T21:14:09.218Z,63.70
2019-04-07T21:18:37.031Z,64.30
2019-04-07T21:23:05.132Z,64.70
2019-04-07T21:27:27.091Z,65.30
2019-04-07T21:31:42.986Z,65.60
2019-04-07T21:36:06.399Z,65.80
2019-04-07T21:40:26.558Z,66.20
2019-04-07T21:44:51.135Z,66.40
2019-04-07T21:49:38.507Z,66.10
2019-04-07T21:54:04.004Z,66.10
2019-04-07T21:58:31.513Z,66.20
2019-04-07T22:03:11.419Z,66.60
2019-04-07T22:07:31.540Z,66.90
2019-04-07T22:11:41.845Z,66.90
2019-04-07T22:15:56.258Z,67.30
2019-04-07T22:20:00.777Z,67.40
2019-04-07T22:24:11.013Z,67.70
2019-04-07T22:28:20.668Z,67.50
2019-04-07T22:32:31.065Z,67.50
2019-04-07T22:36:41.649Z,67.50
2019-04-07T22:40:52.089Z,67.60
2019-04-07T22:45:02.120Z,67.70
2019-04-07T22:49:11.401Z,67.40
2019-04-07T22:53:22.541Z,67.50
2019-04-07T22:57:31.941Z,67.50
2019-04-07T23:01:40.989Z,67.80
2019-04-07T23:05:51.203Z,67.80
2019-04-07T23:10:00.502Z,67.90
2019-04-07T23:14:09.514Z,68.00
2019-04-07T23:18:18.408Z,68.40
2019-04-07T23:22:27.787Z,68.60
2019-04-07T23:26:36.714Z,68.60
2019-04-07T23:30:45.594Z,68.70
2019-04-07T23:34:55.430Z,69.10
2019-04-07T23:39:06.397Z,69.10
2019-04-07T23:43:15.333Z,69.10
2019-04-07T23:47:24.214Z,69.40
2019-04-07T23:51:33.166Z,69.70
2019-04-07T23:55:42.208Z,69.90
2019-04-07T23:59:51.615Z,70.00
